sensor_id;sensor_type;location;lat;lon;timestamp;pressure;altitude;pressure_sealevel;temperature;humidity
55468;BME280;41332;42.702;23.200;2023-05-09T00:01:34;94294.47;;;10.95;81.62
55468;BME280;41332;42.702;23.200;2023-05-09T00:04:00;94284.28;;;10.94;81.73
55468;BME280;41332;42.702;23.200;2023-05-09T00:06:26;94281.00;;;10.97;81.88
55468;BME280;41332;42.702;23.200;2023-05-09T00:08:55;94285.50;;;10.96;81.75
55468;BME280;41332;42.702;23.200;2023-05-09T00:11:21;94278.69;;;10.95;81.73
55468;BME280;41332;42.702;23.200;2023-05-09T00:13:47;94274.72;;;10.89;82.15
55468;BME280;41332;42.702;23.200;2023-05-09T00:16:13;94278.28;;;10.84;82.11
55468;BME280;41332;42.702;23.200;2023-05-09T00:18:40;94275.72;;;10.76;83.12
55468;BME280;41332;42.702;23.200;2023-05-09T00:21:07;94272.97;;;10.63;84.47
55468;BME280;41332;42.702;23.200;2023-05-09T00:23:33;94263.28;;;10.55;84.77
55468;BME280;41332;42.702;23.200;2023-05-09T00:25:58;94265.16;;;10.46;85.45
55468;BME280;41332;42.702;23.200;2023-05-09T00:28:24;94265.63;;;10.39;86.74
55468;BME280;41332;42.702;23.200;2023-05-09T00:30:50;94267.78;;;10.28;87.59
55468;BME280;41332;42.702;23.200;2023-05-09T00:33:15;94261.16;;;10.31;88.27
55468;BME280;41332;42.702;23.200;2023-05-09T00:35:40;94262.72;;;10.23;88.76
55468;BME280;41332;42.702;23.200;2023-05-09T00:38:06;94259.63;;;10.21;88.64
55468;BME280;41332;42.702;23.200;2023-05-09T00:40:31;94261.63;;;10.24;89.06
55468;BME280;41332;42.702;23.200;2023-05-09T00:42:58;94258.06;;;10.29;89.10
55468;BME280;41332;42.702;23.200;2023-05-09T00:45:24;94246.03;;;10.28;88.72
55468;BME280;41332;42.702;23.200;2023-05-09T00:47:49;94247.25;;;10.30;89.32
55468;BME280;41332;42.702;23.200;2023-05-09T00:50:15;94251.28;;;10.28;89.98
55468;BME280;41332;42.702;23.200;2023-05-09T00:52:41;94246.31;;;10.26;90.32
55468;BME280;41332;42.702;23.200;2023-05-09T00:55:07;94252.84;;;10.20;90.80
55468;BME280;41332;42.702;23.200;2023-05-09T00:57:33;94246.97;;;10.23;90.83
55468;BME280;41332;42.702;23.200;2023-05-09T01:00:02;94253.75;;;10.33;90.56
55468;BME280;41332;42.702;23.200;2023-05-09T01:02:29;94255.00;;;10.35;89.84
55468;BME280;41332;42.702;23.200;2023-05-09T01:04:54;94263.31;;;10.37;89.24
55468;BME280;41332;42.702;23.200;2023-05-09T01:10:22;94250.50;;;10.36;88.22
55468;BME280;41332;42.702;23.200;2023-05-09T01:13:03;94258.34;;;10.45;88.55
55468;BME280;41332;42.702;23.200;2023-05-09T01:15:38;94255.09;;;10.48;88.94
55468;BME280;41332;42.702;23.200;2023-05-09T01:20:42;94260.53;;;10.43;88.60
55468;BME280;41332;42.702;23.200;2023-05-09T01:26:00;94265.59;;;10.48;88.58
55468;BME280;41332;42.702;23.200;2023-05-09T01:28:40;94262.38;;;10.51;88.15
55468;BME280;41332;42.702;23.200;2023-05-09T01:31:11;94265.44;;;10.53;87.68
55468;BME280;41332;42.702;23.200;2023-05-09T01:33:38;94269.09;;;10.61;87.00
55468;BME280;41332;42.702;23.200;2023-05-09T01:36:16;94263.09;;;10.60;86.68
55468;BME280;41332;42.702;23.200;2023-05-09T01:38:43;94260.91;;;10.62;86.59
55468;BME280;41332;42.702;23.200;2023-05-09T01:41:11;94261.38;;;10.64;86.25
55468;BME280;41332;42.702;23.200;2023-05-09T01:43:40;94260.47;;;10.60;86.11
55468;BME280;41332;42.702;23.200;2023-05-09T01:46:07;94262.44;;;10.63;85.63
55468;BME280;41332;42.702;23.200;2023-05-09T01:48:35;94274.34;;;10.69;85.31
55468;BME280;41332;42.702;23.200;2023-05-09T01:51:02;94270.47;;;10.67;84.91
55468;BME280;41332;42.702;23.200;2023-05-09T01:53:33;94274.66;;;10.68;84.73
55468;BME280;41332;42.702;23.200;2023-05-09T01:55:59;94270.00;;;10.65;84.28
55468;BME280;41332;42.702;23.200;2023-05-09T01:58:26;94280.38;;;10.61;84.48
55468;BME280;41332;42.702;23.200;2023-05-09T02:00:52;94268.78;;;10.62;84.73
55468;BME280;41332;42.702;23.200;2023-05-09T02:03:19;94279.28;;;10.62;84.59
55468;BME280;41332;42.702;23.200;2023-05-09T02:05:46;94272.97;;;10.63;84.89
55468;BME280;41332;42.702;23.200;2023-05-09T02:08:13;94268.34;;;10.60;84.97
55468;BME280;41332;42.702;23.200;2023-05-09T02:10:39;94274.69;;;10.59;85.02
55468;BME280;41332;42.702;23.200;2023-05-09T02:13:05;94276.22;;;10.60;84.89
55468;BME280;41332;42.702;23.200;2023-05-09T02:15:31;94273.59;;;10.60;85.14
55468;BME280;41332;42.702;23.200;2023-05-09T02:17:57;94268.34;;;10.60;85.33
55468;BME280;41332;42.702;23.200;2023-05-09T02:20:23;94263.28;;;10.55;86.04
55468;BME280;41332;42.702;23.200;2023-05-09T02:22:48;94270.97;;;10.60;86.01
55468;BME280;41332;42.702;23.200;2023-05-09T02:25:14;94274.50;;;10.64;86.07
55468;BME280;41332;42.702;23.200;2023-05-09T02:27:41;94266.47;;;10.61;86.38
55468;BME280;41332;42.702;23.200;2023-05-09T02:30:11;94270.16;;;10.68;86.13
55468;BME280;41332;42.702;23.200;2023-05-09T02:32:38;94276.81;;;10.66;85.84
55468;BME280;41332;42.702;23.200;2023-05-09T02:35:05;94272.78;;;10.68;85.93
55468;BME280;41332;42.702;23.200;2023-05-09T02:37:34;94266.31;;;10.66;85.82
55468;BME280;41332;42.702;23.200;2023-05-09T02:40:00;94271.84;;;10.73;85.47
55468;BME280;41332;42.702;23.200;2023-05-09T02:42:26;94269.84;;;10.70;85.23
55468;BME280;41332;42.702;23.200;2023-05-09T02:44:54;94264.75;;;10.65;85.05
55468;BME280;41332;42.702;23.200;2023-05-09T02:47:20;94271.09;;;10.64;85.41
55468;BME280;41332;42.702;23.200;2023-05-09T02:49:46;94269.69;;;10.66;85.35
55468;BME280;41332;42.702;23.200;2023-05-09T02:52:12;94270.81;;;10.65;85.76
55468;BME280;41332;42.702;23.200;2023-05-09T02:54:38;94271.84;;;10.73;85.67
55468;BME280;41332;42.702;23.200;2023-05-09T02:57:04;94271.56;;;10.66;85.88
55468;BME280;41332;42.702;23.200;2023-05-09T02:59:29;94258.91;;;10.68;85.45
55468;BME280;41332;42.702;23.200;2023-05-09T03:01:55;94265.63;;;10.78;85.12
55468;BME280;41332;42.702;23.200;2023-05-09T03:04:21;94269.06;;;10.78;84.97
55468;BME280;41332;42.702;23.200;2023-05-09T03:06:46;94267.53;;;10.68;85.28
55468;BME280;41332;42.702;23.200;2023-05-09T03:09:12;94277.88;;;10.74;84.50
55468;BME280;41332;42.702;23.200;2023-05-09T03:11:37;94275.72;;;10.67;84.48
55468;BME280;41332;42.702;23.200;2023-05-09T03:14:03;94265.09;;;10.54;84.39
55468;BME280;41332;42.702;23.200;2023-05-09T03:16:29;94279.34;;;10.53;85.04
55468;BME280;41332;42.702;23.200;2023-05-09T03:18:55;94286.28;;;10.49;85.10
55468;BME280;41332;42.702;23.200;2023-05-09T03:21:20;94294.81;;;10.46;85.88
55468;BME280;41332;42.702;23.200;2023-05-09T03:23:46;94299.75;;;10.39;85.54
55468;BME280;41332;42.702;23.200;2023-05-09T03:26:11;94298.69;;;10.40;86.29
55468;BME280;41332;42.702;23.200;2023-05-09T03:28:37;94295.28;;;10.31;85.91
55468;BME280;41332;42.702;23.200;2023-05-09T03:31:03;94289.72;;;10.23;86.90
55468;BME280;41332;42.702;23.200;2023-05-09T03:33:28;94300.38;;;10.18;87.76
55468;BME280;41332;42.702;23.200;2023-05-09T03:35:54;94297.47;;;10.20;88.34
55468;BME280;41332;42.702;23.200;2023-05-09T03:38:19;94302.84;;;10.23;89.04
55468;BME280;41332;42.702;23.200;2023-05-09T03:40:48;94289.88;;;10.27;90.07
55468;BME280;41332;42.702;23.200;2023-05-09T03:43:14;94302.06;;;10.32;90.51
55468;BME280;41332;42.702;23.200;2023-05-09T03:45:39;94300.38;;;10.36;91.28
55468;BME280;41332;42.702;23.200;2023-05-09T03:48:08;94312.25;;;10.33;91.99
55468;BME280;41332;42.702;23.200;2023-05-09T03:50:34;94304.06;;;10.26;92.90
55468;BME280;41332;42.702;23.200;2023-05-09T03:53:00;94308.56;;;10.34;92.07
55468;BME280;41332;42.702;23.200;2023-05-09T03:55:26;94310.41;;;10.34;92.44
55468;BME280;41332;42.702;23.200;2023-05-09T03:57:52;94308.56;;;10.34;92.57
55468;BME280;41332;42.702;23.200;2023-05-09T04:00:17;94310.88;;;10.18;92.58
55468;BME280;41332;42.702;23.200;2023-05-09T04:02:43;94308.88;;;10.24;92.76
55468;BME280;41332;42.702;23.200;2023-05-09T04:05:08;94301.19;;;10.01;93.57
55468;BME280;41332;42.702;23.200;2023-05-09T04:07:34;94309.81;;;10.11;93.57
55468;BME280;41332;42.702;23.200;2023-05-09T04:09:59;94304.13;;;10.00;93.93
55468;BME280;41332;42.702;23.200;2023-05-09T04:12:25;94304.75;;;9.97;93.72
55468;BME280;41332;42.702;23.200;2023-05-09T04:14:50;94313.22;;;10.02;93.74
55468;BME280;41332;42.702;23.200;2023-05-09T04:17:16;94313.53;;;10.10;92.60
55468;BME280;41332;42.702;23.200;2023-05-09T04:19:42;94308.75;;;10.12;92.44
55468;BME280;41332;42.702;23.200;2023-05-09T04:22:07;94309.03;;;10.19;92.01
55468;BME280;41332;42.702;23.200;2023-05-09T04:24:32;94315.97;;;10.23;91.51
55468;BME280;41332;42.702;23.200;2023-05-09T04:26:58;94308.72;;;10.29;91.17
55468;BME280;41332;42.702;23.200;2023-05-09T04:29:23;94315.81;;;10.37;90.68
55468;BME280;41332;42.702;23.200;2023-05-09T04:31:50;94319.03;;;10.52;90.05
55468;BME280;41332;42.702;23.200;2023-05-09T04:34:15;94312.53;;;10.58;89.85
55468;BME280;41332;42.702;23.200;2023-05-09T04:36:41;94320.25;;;10.54;88.89
55468;BME280;41332;42.702;23.200;2023-05-09T04:39:09;94320.75;;;10.48;90.17
55468;BME280;41332;42.702;23.200;2023-05-09T04:41:35;94322.09;;;10.63;89.23
55468;BME280;41332;42.702;23.200;2023-05-09T04:44:00;94334.00;;;10.60;88.90
55468;BME280;41332;42.702;23.200;2023-05-09T04:46:26;94324.84;;;10.66;88.85
55468;BME280;41332;42.702;23.200;2023-05-09T04:48:52;94323.94;;;10.62;89.48
55468;BME280;41332;42.702;23.200;2023-05-09T04:51:17;94322.28;;;10.49;89.09
55468;BME280;41332;42.702;23.200;2023-05-09T04:53:43;94331.25;;;10.48;89.16
55468;BME280;41332;42.702;23.200;2023-05-09T04:56:09;94327.38;;;10.63;89.55
55468;BME280;41332;42.702;23.200;2023-05-09T04:58:34;94327.03;;;10.64;89.15
55468;BME280;41332;42.702;23.200;2023-05-09T05:01:03;94323.34;;;10.65;88.63
55468;BME280;41332;42.702;23.200;2023-05-09T05:03:30;94327.47;;;10.75;87.47
55468;BME280;41332;42.702;23.200;2023-05-09T05:05:55;94323.41;;;10.86;86.86
55468;BME280;41332;42.702;23.200;2023-05-09T05:08:20;94325.84;;;10.92;86.35
55468;BME280;41332;42.702;23.200;2023-05-09T05:10:46;94319.50;;;11.01;85.77
55468;BME280;41332;42.702;23.200;2023-05-09T05:13:13;94321.97;;;10.98;85.68
55468;BME280;41332;42.702;23.200;2023-05-09T05:15:38;94331.06;;;11.09;85.61
55468;BME280;41332;42.702;23.200;2023-05-09T05:18:03;94326.88;;;11.08;85.01
55468;BME280;41332;42.702;23.200;2023-05-09T05:20:29;94330.59;;;11.07;84.47
55468;BME280;41332;42.702;23.200;2023-05-09T05:22:54;94333.97;;;11.08;84.56
55468;BME280;41332;42.702;23.200;2023-05-09T05:25:20;94326.75;;;10.96;85.86
55468;BME280;41332;42.702;23.200;2023-05-09T05:27:46;94327.06;;;11.03;85.24
55468;BME280;41332;42.702;23.200;2023-05-09T05:30:12;94334.59;;;11.13;84.79
55468;BME280;41332;42.702;23.200;2023-05-09T05:32:39;94331.78;;;11.18;84.69
55468;BME280;41332;42.702;23.200;2023-05-09T05:35:05;94327.28;;;11.19;84.88
55468;BME280;41332;42.702;23.200;2023-05-09T05:37:30;94329.59;;;11.20;84.25
55468;BME280;41332;42.702;23.200;2023-05-09T05:39:56;94326.84;;;11.17;83.92
55468;BME280;41332;42.702;23.200;2023-05-09T05:42:21;94329.28;;;11.22;84.43
55468;BME280;41332;42.702;23.200;2023-05-09T05:44:47;94336.88;;;11.15;84.44
55468;BME280;41332;42.702;23.200;2023-05-09T05:47:12;94332.09;;;11.17;84.84
55468;BME280;41332;42.702;23.200;2023-05-09T05:49:37;94334.03;;;11.29;84.17
55468;BME280;41332;42.702;23.200;2023-05-09T05:52:03;94340.09;;;11.50;83.38
55468;BME280;41332;42.702;23.200;2023-05-09T05:54:28;94333.56;;;11.57;82.86
55468;BME280;41332;42.702;23.200;2023-05-09T05:56:54;94337.88;;;11.61;81.24
55468;BME280;41332;42.702;23.200;2023-05-09T05:59:19;94335.63;;;11.72;81.54
55468;BME280;41332;42.702;23.200;2023-05-09T06:01:45;94345.56;;;11.66;80.43
55468;BME280;41332;42.702;23.200;2023-05-09T06:04:10;94337.91;;;11.74;80.37
55468;BME280;41332;42.702;23.200;2023-05-09T06:06:35;94334.72;;;11.89;80.45
55468;BME280;41332;42.702;23.200;2023-05-09T06:09:01;94331.53;;;12.04;80.09
55468;BME280;41332;42.702;23.200;2023-05-09T06:11:26;94332.41;;;12.09;79.17
55468;BME280;41332;42.702;23.200;2023-05-09T06:13:52;94340.31;;;11.87;79.82
55468;BME280;41332;42.702;23.200;2023-05-09T06:16:17;94329.19;;;11.61;80.65
55468;BME280;41332;42.702;23.200;2023-05-09T06:18:42;94331.72;;;11.57;80.80
55468;BME280;41332;42.702;23.200;2023-05-09T06:21:08;94331.25;;;11.76;78.69
55468;BME280;41332;42.702;23.200;2023-05-09T06:23:33;94335.03;;;11.87;78.33
55468;BME280;41332;42.702;23.200;2023-05-09T06:26:03;94338.59;;;12.13;77.93
55468;BME280;41332;42.702;23.200;2023-05-09T06:28:29;94324.38;;;12.26;78.59
55468;BME280;41332;42.702;23.200;2023-05-09T06:30:55;94334.34;;;12.20;75.62
55468;BME280;41332;42.702;23.200;2023-05-09T06:33:20;94336.69;;;12.34;76.29
55468;BME280;41332;42.702;23.200;2023-05-09T06:35:45;94331.75;;;12.33;76.54
55468;BME280;41332;42.702;23.200;2023-05-09T06:38:11;94326.53;;;12.45;74.60
55468;BME280;41332;42.702;23.200;2023-05-09T06:40:36;94323.31;;;12.40;74.78
55468;BME280;41332;42.702;23.200;2023-05-09T06:43:02;94325.44;;;12.46;74.88
55468;BME280;41332;42.702;23.200;2023-05-09T06:45:27;94332.59;;;12.58;74.71
55468;BME280;41332;42.702;23.200;2023-05-09T06:47:53;94333.72;;;12.82;72.26
55468;BME280;41332;42.702;23.200;2023-05-09T06:50:18;94331.34;;;12.43;72.09
55468;BME280;41332;42.702;23.200;2023-05-09T06:52:44;94325.97;;;12.52;71.44
55468;BME280;41332;42.702;23.200;2023-05-09T06:55:09;94328.22;;;12.75;71.08
55468;BME280;41332;42.702;23.200;2023-05-09T06:57:35;94321.50;;;12.77;71.81
55468;BME280;41332;42.702;23.200;2023-05-09T07:00:00;94325.66;;;12.53;71.32
55468;BME280;41332;42.702;23.200;2023-05-09T07:02:26;94331.25;;;12.18;72.31
55468;BME280;41332;42.702;23.200;2023-05-09T07:04:51;94328.47;;;12.02;71.26
55468;BME280;41332;42.702;23.200;2023-05-09T07:07:16;94315.31;;;12.36;72.03
55468;BME280;41332;42.702;23.200;2023-05-09T07:09:42;94320.66;;;12.40;72.79
55468;BME280;41332;42.702;23.200;2023-05-09T07:12:07;94315.56;;;12.56;71.47
55468;BME280;41332;42.702;23.200;2023-05-09T07:14:33;94319.41;;;12.70;71.46
55468;BME280;41332;42.702;23.200;2023-05-09T07:16:58;94320.22;;;13.08;71.18
55468;BME280;41332;42.702;23.200;2023-05-09T07:19:23;94323.84;;;13.16;68.73
55468;BME280;41332;42.702;23.200;2023-05-09T07:21:49;94324.19;;;12.90;68.79
55468;BME280;41332;42.702;23.200;2023-05-09T07:24:14;94330.22;;;12.90;68.94
55468;BME280;41332;42.702;23.200;2023-05-09T07:26:40;94332.00;;;12.52;68.29
55468;BME280;41332;42.702;23.200;2023-05-09T07:29:06;94325.34;;;12.22;71.06
55468;BME280;41332;42.702;23.200;2023-05-09T07:31:31;94329.56;;;12.35;69.88
55468;BME280;41332;42.702;23.200;2023-05-09T07:33:57;94318.09;;;12.52;68.18
55468;BME280;41332;42.702;23.200;2023-05-09T07:36:22;94321.25;;;12.45;69.61
55468;BME280;41332;42.702;23.200;2023-05-09T07:38:47;94324.53;;;12.42;69.94
55468;BME280;41332;42.702;23.200;2023-05-09T07:41:14;94319.66;;;12.32;67.87
55468;BME280;41332;42.702;23.200;2023-05-09T07:43:40;94320.63;;;12.61;69.59
55468;BME280;41332;42.702;23.200;2023-05-09T07:46:05;94326.91;;;12.68;68.82
55468;BME280;41332;42.702;23.200;2023-05-09T07:48:31;94329.22;;;13.19;68.73
55468;BME280;41332;42.702;23.200;2023-05-09T07:50:56;94327.47;;;13.24;67.60
55468;BME280;41332;42.702;23.200;2023-05-09T07:53:22;94327.59;;;13.15;67.21
55468;BME280;41332;42.702;23.200;2023-05-09T07:55:47;94325.63;;;13.24;68.85
55468;BME280;41332;42.702;23.200;2023-05-09T07:58:17;94328.25;;;13.24;68.88
55468;BME280;41332;42.702;23.200;2023-05-09T08:00:42;94312.22;;;13.29;68.06
55468;BME280;41332;42.702;23.200;2023-05-09T08:03:08;94320.38;;;12.53;67.70
55468;BME280;41332;42.702;23.200;2023-05-09T08:05:33;94320.59;;;12.48;69.09
55468;BME280;41332;42.702;23.200;2023-05-09T08:07:58;94319.66;;;12.90;68.98
55468;BME280;41332;42.702;23.200;2023-05-09T08:10:24;94316.94;;;12.99;71.11
55468;BME280;41332;42.702;23.200;2023-05-09T08:12:51;94326.91;;;12.81;70.36
55468;BME280;41332;42.702;23.200;2023-05-09T08:15:16;94323.53;;;13.05;71.15
55468;BME280;41332;42.702;23.200;2023-05-09T08:17:42;94325.38;;;13.17;70.22
55468;BME280;41332;42.702;23.200;2023-05-09T08:20:08;94319.00;;;13.06;71.09
55468;BME280;41332;42.702;23.200;2023-05-09T08:22:33;94322.31;;;13.15;71.38
55468;BME280;41332;42.702;23.200;2023-05-09T08:24:59;94316.28;;;13.14;70.24
55468;BME280;41332;42.702;23.200;2023-05-09T08:27:24;94325.72;;;13.15;70.33
55468;BME280;41332;42.702;23.200;2023-05-09T08:29:50;94324.84;;;13.24;70.56
55468;BME280;41332;42.702;23.200;2023-05-09T08:32:15;94319.44;;;13.32;70.37
55468;BME280;41332;42.702;23.200;2023-05-09T08:34:41;94329.06;;;13.37;68.32
55468;BME280;41332;42.702;23.200;2023-05-09T08:37:06;94318.56;;;13.53;67.95
55468;BME280;41332;42.702;23.200;2023-05-09T08:39:32;94318.81;;;13.48;67.35
55468;BME280;41332;42.702;23.200;2023-05-09T08:41:59;94321.09;;;13.25;66.23
55468;BME280;41332;42.702;23.200;2023-05-09T08:44:27;94320.44;;;13.03;68.18
55468;BME280;41332;42.702;23.200;2023-05-09T08:47:01;94305.97;;;12.97;67.44
55468;BME280;41332;42.702;23.200;2023-05-09T08:49:27;94310.31;;;12.56;68.49
55468;BME280;41332;42.702;23.200;2023-05-09T08:51:53;94322.50;;;12.85;68.10
55468;BME280;41332;42.702;23.200;2023-05-09T08:54:20;94310.22;;;13.01;67.37
55468;BME280;41332;42.702;23.200;2023-05-09T08:56:46;94308.91;;;12.95;69.33
55468;BME280;41332;42.702;23.200;2023-05-09T08:59:12;94312.44;;;12.99;69.40
55468;BME280;41332;42.702;23.200;2023-05-09T09:01:39;94319.00;;;13.06;69.39
55468;BME280;41332;42.702;23.200;2023-05-09T09:04:06;94304.53;;;12.99;68.89
55468;BME280;41332;42.702;23.200;2023-05-09T09:06:35;94314.63;;;13.22;67.56
55468;BME280;41332;42.702;23.200;2023-05-09T09:09:01;94317.03;;;13.64;67.78
55468;BME280;41332;42.702;23.200;2023-05-09T09:11:30;94314.06;;;13.54;68.50
55468;BME280;41332;42.702;23.200;2023-05-09T09:14:00;94316.38;;;13.30;68.42
55468;BME280;41332;42.702;23.200;2023-05-09T09:16:28;94317.81;;;13.40;66.86
55468;BME280;41332;42.702;23.200;2023-05-09T09:18:54;94314.63;;;13.34;66.60
55468;BME280;41332;42.702;23.200;2023-05-09T09:21:20;94319.56;;;13.11;66.07
55468;BME280;41332;42.702;23.200;2023-05-09T09:23:46;94322.84;;;13.08;66.93
55468;BME280;41332;42.702;23.200;2023-05-09T09:26:13;94317.91;;;13.07;67.01
55468;BME280;41332;42.702;23.200;2023-05-09T09:28:41;94321.75;;;13.09;66.57
55468;BME280;41332;42.702;23.200;2023-05-09T09:31:26;94316.38;;;13.18;66.94
55468;BME280;41332;42.702;23.200;2023-05-09T09:33:58;94316.84;;;13.20;66.67
55468;BME280;41332;42.702;23.200;2023-05-09T09:36:27;94315.06;;;13.24;66.55
55468;BME280;41332;42.702;23.200;2023-05-09T09:39:00;94306.94;;;13.17;67.34
55468;BME280;41332;42.702;23.200;2023-05-09T09:41:33;94316.91;;;13.36;66.28
55468;BME280;41332;42.702;23.200;2023-05-09T09:44:09;94314.38;;;13.52;68.47
55468;BME280;41332;42.702;23.200;2023-05-09T09:46:52;94313.72;;;13.30;67.54
55468;BME280;41332;42.702;23.200;2023-05-09T09:49:19;94321.06;;;12.63;67.40
55468;BME280;41332;42.702;23.200;2023-05-09T09:51:52;94316.56;;;12.76;68.37
55468;BME280;41332;42.702;23.200;2023-05-09T09:54:17;94328.31;;;12.78;68.64
55468;BME280;41332;42.702;23.200;2023-05-09T09:56:45;94316.88;;;12.62;69.33
55468;BME280;41332;42.702;23.200;2023-05-09T09:59:16;94318.34;;;12.72;69.31
55468;BME280;41332;42.702;23.200;2023-05-09T10:04:21;94310.03;;;12.94;69.42
55468;BME280;41332;42.702;23.200;2023-05-09T10:06:53;94313.94;;;12.76;69.41
55468;BME280;41332;42.702;23.200;2023-05-09T10:09:23;94296.81;;;12.82;68.52
55468;BME280;41332;42.702;23.200;2023-05-09T10:11:50;94301.97;;;13.28;68.47
55468;BME280;41332;42.702;23.200;2023-05-09T10:14:23;94293.44;;;13.72;66.84
55468;BME280;41332;42.702;23.200;2023-05-09T10:16:50;94289.66;;;13.57;67.80
55468;BME280;41332;42.702;23.200;2023-05-09T10:19:20;94283.34;;;13.61;66.34
55468;BME280;41332;42.702;23.200;2023-05-09T10:22:13;94292.91;;;13.78;66.93
55468;BME280;41332;42.702;23.200;2023-05-09T10:24:46;94276.47;;;14.13;66.22
55468;BME280;41332;42.702;23.200;2023-05-09T10:27:13;94282.84;;;14.41;65.69
55468;BME280;41332;42.702;23.200;2023-05-09T10:29:44;94288.91;;;14.13;66.77
55468;BME280;41332;42.702;23.200;2023-05-09T10:32:30;94281.84;;;14.17;65.28
55468;BME280;41332;42.702;23.200;2023-05-09T10:35:03;94276.31;;;13.94;64.32
55468;BME280;41332;42.702;23.200;2023-05-09T10:37:29;94281.44;;;13.74;65.25
55468;BME280;41332;42.702;23.200;2023-05-09T10:39:55;94284.69;;;13.96;65.86
55468;BME280;41332;42.702;23.200;2023-05-09T10:42:22;94280.63;;;14.14;65.91
55468;BME280;41332;42.702;23.200;2023-05-09T10:44:50;94280.94;;;13.56;67.03
55468;BME280;41332;42.702;23.200;2023-05-09T10:47:18;94282.16;;;13.59;67.52
55468;BME280;41332;42.702;23.200;2023-05-09T10:49:44;94285.84;;;13.82;69.06
55468;BME280;41332;42.702;23.200;2023-05-09T10:52:10;94277.53;;;13.68;67.31
55468;BME280;41332;42.702;23.200;2023-05-09T10:54:36;94278.63;;;13.67;65.14
55468;BME280;41332;42.702;23.200;2023-05-09T10:57:02;94276.34;;;13.65;66.48
55468;BME280;41332;42.702;23.200;2023-05-09T10:59:41;94280.75;;;13.90;66.36
55468;BME280;41332;42.702;23.200;2023-05-09T11:02:12;94286.59;;;13.83;64.41
55468;BME280;41332;42.702;23.200;2023-05-09T11:04:39;94283.81;;;13.92;64.55
55468;BME280;41332;42.702;23.200;2023-05-09T11:07:24;94283.78;;;13.76;64.94
55468;BME280;41332;42.702;23.200;2023-05-09T11:10:16;94279.06;;;13.97;63.55
55468;BME280;41332;42.702;23.200;2023-05-09T11:12:56;94269.31;;;14.14;64.08
55468;BME280;41332;42.702;23.200;2023-05-09T11:15:22;94273.84;;;14.13;65.74
55468;BME280;41332;42.702;23.200;2023-05-09T11:18:04;94272.19;;;14.09;63.99
55468;BME280;41332;42.702;23.200;2023-05-09T11:20:32;94276.00;;;14.40;64.43
55468;BME280;41332;42.702;23.200;2023-05-09T11:22:58;94278.84;;;14.63;62.69
55468;BME280;41332;42.702;23.200;2023-05-09T11:25:25;94287.22;;;14.21;64.05
55468;BME280;41332;42.702;23.200;2023-05-09T11:27:57;94281.19;;;14.20;62.97
55468;BME280;41332;42.702;23.200;2023-05-09T11:30:34;94260.28;;;14.15;62.53
55468;BME280;41332;42.702;23.200;2023-05-09T11:33:00;94266.78;;;14.17;64.14
55468;BME280;41332;42.702;23.200;2023-05-09T11:35:26;94273.44;;;13.99;64.22
55468;BME280;41332;42.702;23.200;2023-05-09T11:40:26;94271.31;;;13.23;66.75
55468;BME280;41332;42.702;23.200;2023-05-09T11:42:53;94287.06;;;13.73;66.38
55468;BME280;41332;42.702;23.200;2023-05-09T11:45:23;94269.88;;;13.50;64.76
55468;BME280;41332;42.702;23.200;2023-05-09T11:47:49;94265.28;;;13.47;65.69
55468;BME280;41332;42.702;23.200;2023-05-09T11:50:17;94268.03;;;13.14;65.28
55468;BME280;41332;42.702;23.200;2023-05-09T11:52:44;94278.34;;;13.44;65.18
55468;BME280;41332;42.702;23.200;2023-05-09T11:55:11;94278.44;;;13.35;66.28
55468;BME280;41332;42.702;23.200;2023-05-09T11:57:49;94271.44;;;13.27;66.22
55468;BME280;41332;42.702;23.200;2023-05-09T12:00:19;94276.38;;;13.41;65.94
55468;BME280;41332;42.702;23.200;2023-05-09T12:02:46;94274.84;;;13.40;67.76
55468;BME280;41332;42.702;23.200;2023-05-09T12:05:13;94274.78;;;13.64;66.37
55468;BME280;41332;42.702;23.200;2023-05-09T12:07:39;94278.53;;;13.63;66.04
55468;BME280;41332;42.702;23.200;2023-05-09T12:10:14;94284.50;;;13.48;66.96
55468;BME280;41332;42.702;23.200;2023-05-09T12:12:44;94283.72;;;13.23;66.45
55468;BME280;41332;42.702;23.200;2023-05-09T12:15:11;94277.50;;;13.15;67.93
55468;BME280;41332;42.702;23.200;2023-05-09T12:17:38;94275.97;;;12.89;69.59
55468;BME280;41332;42.702;23.200;2023-05-09T12:20:04;94278.16;;;12.99;68.80
55468;BME280;41332;42.702;23.200;2023-05-09T12:22:30;94287.59;;;13.13;65.90
55468;BME280;41332;42.702;23.200;2023-05-09T12:24:58;94278.91;;;13.00;67.16
55468;BME280;41332;42.702;23.200;2023-05-09T12:27:25;94277.38;;;12.99;68.64
55468;BME280;41332;42.702;23.200;2023-05-09T12:29:52;94269.69;;;12.94;68.34
55468;BME280;41332;42.702;23.200;2023-05-09T12:32:17;94272.44;;;12.97;68.76
55468;BME280;41332;42.702;23.200;2023-05-09T12:34:43;94272.44;;;13.10;68.95
55468;BME280;41332;42.702;23.200;2023-05-09T12:37:17;94274.53;;;13.16;67.87
55468;BME280;41332;42.702;23.200;2023-05-09T12:40:05;94260.13;;;13.01;68.90
55468;BME280;41332;42.702;23.200;2023-05-09T12:42:32;94269.81;;;12.97;69.84
55468;BME280;41332;42.702;23.200;2023-05-09T12:44:58;94261.78;;;13.06;69.01
55468;BME280;41332;42.702;23.200;2023-05-09T12:47:27;94250.13;;;12.58;69.77
55468;BME280;41332;42.702;23.200;2023-05-09T12:50:02;94255.31;;;13.03;70.60
55468;BME280;41332;42.702;23.200;2023-05-09T12:52:37;94254.84;;;12.64;71.60
55468;BME280;41332;42.702;23.200;2023-05-09T12:55:05;94251.09;;;12.41;71.57
55468;BME280;41332;42.702;23.200;2023-05-09T12:57:31;94250.19;;;12.24;72.02
55468;BME280;41332;42.702;23.200;2023-05-09T12:59:58;94247.66;;;12.28;72.86
55468;BME280;41332;42.702;23.200;2023-05-09T13:02:26;94254.28;;;12.00;73.00
55468;BME280;41332;42.702;23.200;2023-05-09T13:05:11;94242.94;;;11.87;74.66